Time;durP1;ratioP1;P1;durP2;ratioP2;P2;SDS_P1;SDS_P2;PMS_P1;PMS_P2;Temp;Humidity;BMP_temperature;BMP_pressure;BME280_temperature;BME280_humidity;BME280_pressure;Samples;Min_cycle;Max_cycle;Signal;HPM_P1;HPM_P2
2022/10/02 00:02:56;;;;;;;1.52;1.25;;;;;;;12.75;80.71;95159.22;1779293;80;21533;-72
2022/10/02 00:05:37;;;;;;;2.27;1.20;;;;;;;12.75;80.16;95164.08;1779231;81;20987;-72
2022/10/02 00:08:21;;;;;;;3.75;1.12;;;;;;;12.68;80.12;95175.79;1778924;81;21030;-72
2022/10/02 00:10:55;;;;;;;2.35;1.30;;;;;;;12.63;79.71;95166.28;1779166;80;21110;-72
2022/10/02 00:13:45;;;;;;;1.60;1.22;;;;;;;12.65;80.14;95166.64;1778928;81;21026;-72
2022/10/02 00:16:44;;;;;;;1.30;1.20;;;;;;;12.76;80.61;95167.13;1751676;81;21007;-72
2022/10/02 00:19:16;;;;;;;4.30;1.50;;;;;;;12.78;80.64;95169.27;1779581;80;21483;-73
2022/10/02 00:22:09;;;;;;;1.77;1.55;;;;;;;12.82;81.88;95163.86;1778944;81;21126;-72
2022/10/02 00:24:42;;;;;;;2.12;1.42;;;;;;;12.79;82.34;95171.45;1779337;81;21058;-72
2022/10/02 00:27:34;;;;;;;2.77;1.40;;;;;;;12.69;81.91;95181.48;1779382;81;20983;-73
2022/10/02 00:30:04;;;;;;;3.02;1.47;;;;;;;12.64;81.65;95164.03;1779176;80;21107;-72
2022/10/02 00:32:54;;;;;;;2.15;1.30;;;;;;;12.69;82.13;95164.73;1779516;81;21103;-71
2022/10/02 00:35:59;;;;;;;2.90;1.40;;;;;;;12.65;80.82;95173.69;1779119;80;21513;-72
2022/10/02 00:38:52;;;;;;;2.17;1.75;;;;;;;12.60;80.70;95168.58;1751193;81;21049;-72
2022/10/02 00:41:54;;;;;;;2.00;1.82;;;;;;;12.56;80.61;95186.78;1779882;81;21488;-72
2022/10/02 00:44:35;;;;;;;2.00;1.80;;;;;;;12.59;81.04;95181.38;1779624;80;21090;-72
2022/10/02 00:47:35;;;;;;;2.52;2.10;;;;;;;12.63;81.56;95194.94;1779234;81;21095;-72
2022/10/02 00:50:16;;;;;;;2.95;2.10;;;;;;;12.65;81.31;95194.86;1778931;81;21034;-72
2022/10/02 00:53:14;;;;;;;2.58;2.10;;;;;;;12.59;81.03;95199.05;1779394;81;21163;-72
2022/10/02 00:55:49;;;;;;;2.30;1.77;;;;;;;12.55;80.76;95196.97;1779623;81;21011;-72
2022/10/02 00:58:58;;;;;;;3.52;1.90;;;;;;;12.52;80.65;95197.05;1767748;81;21007;-72
2022/10/02 01:01:33;;;;;;;2.05;1.77;;;;;;;12.52;81.19;95196.61;1779240;81;21026;-72
2022/10/02 01:04:05;;;;;;;1.80;1.60;;;;;;;12.51;81.30;95197.97;1777309;81;21011;-72
2022/10/02 01:06:32;;;;;;;2.35;1.85;;;;;;;12.51;79.03;95202.80;1782039;80;20991;-72
2022/10/02 01:09:01;;;;;;;1.85;1.40;;;;;;;12.49;78.43;95192.72;1785063;80;21095;-72
2022/10/02 01:11:30;;;;;;;1.98;1.57;;;;;;;12.41;77.64;95200.05;1784939;80;21070;-72
2022/10/02 01:13:57;;;;;;;2.37;1.50;;;;;;;12.44;78.43;95201.73;1784884;80;21558;-72
2022/10/02 01:16:24;;;;;;;2.17;1.67;;;;;;;12.40;77.99;95197.44;1784860;80;21039;-72
2022/10/02 01:18:51;;;;;;;2.10;1.80;;;;;;;12.39;79.13;95195.72;1784812;80;20979;-72
2022/10/02 01:21:35;;;;;;;3.37;1.80;;;;;;;12.40;79.29;95200.08;1785120;80;21053;-72
2022/10/02 01:24:17;;;;;;;2.00;1.70;;;;;;;12.38;79.54;95198.83;1783695;80;21046;-72
2022/10/02 01:26:43;;;;;;;2.70;1.77;;;;;;;12.39;80.67;95197.05;1785347;80;20975;-73
2022/10/02 01:29:10;;;;;;;1.92;1.72;;;;;;;12.37;80.21;95201.05;1784643;80;21015;-72
2022/10/02 01:31:37;;;;;;;1.87;1.70;;;;;;;12.36;80.54;95207.27;1784781;80;21019;-72
2022/10/02 01:34:04;;;;;;;4.45;2.08;;;;;;;12.26;81.69;95197.43;1784965;80;21519;-72
2022/10/02 01:36:31;;;;;;;1.55;1.37;;;;;;;12.18;81.67;95197.27;1785020;80;21053;-72
2022/10/02 01:38:59;;;;;;;2.12;1.52;;;;;;;11.98;79.52;95194.78;1784634;80;21022;-72
2022/10/02 01:41:26;;;;;;;1.70;1.57;;;;;;;12.00;80.54;95196.06;1758934;80;20994;-72
2022/10/02 01:43:58;;;;;;;1.80;1.65;;;;;;;11.94;79.47;95201.52;1758824;80;21513;-72
2022/10/02 01:46:48;;;;;;;2.12;1.65;;;;;;;11.87;80.59;95204.36;1783717;80;21087;-73
2022/10/02 01:50:11;;;;;;;3.05;2.10;;;;;;;11.81;81.32;95207.59;1784690;80;21019;-72
2022/10/02 01:52:43;;;;;;;3.02;1.60;;;;;;;11.61;81.29;95214.32;1784677;80;21030;-72
2022/10/02 01:55:45;;;;;;;3.17;1.40;;;;;;;11.46;81.47;95210.37;1784841;80;21006;-72
2022/10/02 01:58:49;;;;;;;1.45;1.35;;;;;;;11.35;81.85;95212.89;1784841;80;21118;-72
2022/10/02 02:01:26;;;;;;;;;;;;;;;11.21;81.05;95210.61;1787132;80;21046;-73
2022/10/02 02:04:23;;;;;;;2.85;1.05;;;;;;;11.11;80.63;95212.63;1758659;80;20096;-73
2022/10/02 02:07:08;;;;;;;2.47;1.10;;;;;;;11.05;80.87;95224.22;1781760;80;21524;-72
2022/10/02 02:10:01;;;;;;;6.80;1.05;;;;;;;10.99;81.31;95230.14;1778262;81;21015;-72
2022/10/02 02:12:48;;;;;;;5.83;1.15;;;;;;;10.89;82.14;95229.97;1778928;81;21027;-72
2022/10/02 02:15:22;;;;;;;2.12;1.10;;;;;;;10.88;81.94;95233.48;1779529;80;20987;-72
2022/10/02 02:18:12;;;;;;;1.32;0.90;;;;;;;10.87;82.17;95231.31;1751394;81;21460;-72
2022/10/02 02:20:46;;;;;;;1.20;0.98;;;;;;;10.89;82.69;95233.47;1779416;81;21014;-72
2022/10/02 02:23:17;;;;;;;1.32;0.95;;;;;;;10.87;82.61;95237.05;1778315;81;21070;-72
2022/10/02 02:25:48;;;;;;;1.42;1.02;;;;;;;10.90;83.02;95240.47;1779511;80;20990;-72
2022/10/02 02:28:19;;;;;;;2.35;1.27;;;;;;;10.87;83.28;95232.63;1779480;80;21027;-72
2022/10/02 02:30:50;;;;;;;1.25;1.15;;;;;;;10.82;80.03;95237.16;1779795;80;21015;-72
2022/10/02 02:33:37;;;;;;;1.20;1.10;;;;;;;10.87;80.70;95241.01;1779343;80;21212;-72
2022/10/02 02:36:11;;;;;;;1.22;1.12;;;;;;;10.89;80.41;95239.20;1779322;80;20991;-73
2022/10/02 02:38:45;;;;;;;1.40;1.30;;;;;;;10.91;80.25;95242.22;1779544;80;20991;-72
2022/10/02 02:41:16;;;;;;;2.45;1.10;;;;;;;10.89;80.16;95251.08;1779363;81;21011;-72
2022/10/02 02:43:54;;;;;;;3.17;1.25;;;;;;;10.85;80.23;95262.15;1779169;81;21070;-72
2022/10/02 02:47:02;;;;;;;3.27;1.35;;;;;;;10.81;80.21;95267.97;1775126;81;21003;-72
2022/10/02 02:49:51;;;;;;;1.55;1.05;;;;;;;10.81;79.83;95273.25;1779096;81;21086;-72
2022/10/02 02:52:32;;;;;;;1.60;1.27;;;;;;;10.85;79.75;95269.20;1779658;80;21038;-72
2022/10/02 02:55:15;;;;;;;2.72;1.30;;;;;;;10.91;79.48;95280.92;1779372;80;21500;-72
2022/10/02 02:57:47;;;;;;;1.35;1.25;;;;;;;10.93;79.35;95283.07;1779599;81;21034;-72
2022/10/02 03:00:18;;;;;;;1.87;1.22;;;;;;;10.99;79.66;95276.34;1779016;81;21540;-72
2022/10/02 03:02:46;;;;;;;1.90;1.55;;;;;;;11.03;79.43;95288.53;1779254;81;21014;-71
2022/10/02 03:05:16;;;;;;;1.77;1.40;;;;;;;11.04;79.34;95283.69;1779314;81;21014;-72
2022/10/02 03:08:00;;;;;;;2.47;1.30;;;;;;;11.11;79.61;95285.23;1783278;80;20995;-72
2022/10/02 03:10:47;;;;;;;1.42;1.32;;;;;;;11.15;79.71;95280.77;1783990;80;21062;-72
2022/10/02 03:13:33;;;;;;;1.42;1.27;;;;;;;11.21;79.36;95284.55;1784677;80;21011;-72
2022/10/02 03:16:23;;;;;;;1.45;1.35;;;;;;;11.23;78.79;95298.13;1783307;80;21150;-72
2022/10/02 03:19:32;;;;;;;1.60;1.42;;;;;;;11.23;79.16;95298.13;1784976;80;20971;-72
2022/10/02 03:22:28;;;;;;;2.72;1.60;;;;;;;11.27;79.20;95314.78;1730923;83;21113;-72
2022/10/02 03:25:12;;;;;;;1.50;1.40;;;;;;;11.32;79.42;95321.27;1784081;80;21020;-72
2022/10/02 03:27:47;;;;;;;2.27;1.30;;;;;;;11.24;78.32;95318.83;1784694;80;21034;-72
2022/10/02 03:30:19;;;;;;;1.62;1.35;;;;;;;11.23;78.02;95324.53;1784914;80;20983;-71
2022/10/02 03:32:45;;;;;;;1.98;1.30;;;;;;;11.18;77.19;95322.47;1784569;80;21053;-72
2022/10/02 03:35:13;;;;;;;2.40;1.57;;;;;;;11.04;76.87;95321.51;1784757;80;20976;-72
2022/10/02 03:37:44;;;;;;;1.75;1.42;;;;;;;11.03;77.24;95323.72;1758944;80;21046;-71
2022/10/02 03:40:11;;;;;;;2.20;1.50;;;;;;;11.07;77.79;95331.59;1785074;80;21408;-72
2022/10/02 03:42:39;;;;;;;1.72;1.52;;;;;;;11.03;78.07;95333.41;1784785;80;21022;-71
2022/10/02 03:45:07;;;;;;;1.47;1.30;;;;;;;11.02;78.13;95341.80;1784678;80;21050;-71
2022/10/02 03:47:34;;;;;;;1.67;1.37;;;;;;;11.04;78.35;95342.63;1784762;80;20982;-72
2022/10/02 03:50:00;;;;;;;1.82;1.60;;;;;;;11.04;77.51;95345.27;1784931;80;20983;-71
2022/10/02 03:52:30;;;;;;;2.40;1.57;;;;;;;11.03;77.71;95340.02;1784775;80;21106;-72
2022/10/02 03:55:02;;;;;;;1.70;1.60;;;;;;;11.07;78.03;95348.29;1784774;80;21518;-72
2022/10/02 03:57:32;;;;;;;1.77;1.60;;;;;;;11.10;78.10;95361.41;1784957;80;20995;-71
2022/10/02 04:00:11;;;;;;;1.82;1.72;;;;;;;11.13;78.22;95361.78;1784904;80;21500;-71
2022/10/02 04:02:55;;;;;;;2.20;1.70;;;;;;;11.17;78.25;95366.09;1784930;80;21006;-72
2022/10/02 04:05:46;;;;;;;;;;;;;;;11.20;78.36;95379.22;1787401;80;21118;-72
2022/10/02 04:08:39;;;;;;;1.82;1.65;;;;;;;11.19;78.39;95378.82;1780039;80;20417;-72
2022/10/02 04:11:17;;;;;;;1.87;1.50;;;;;;;11.06;78.15;95388.78;1779494;80;20995;-72
2022/10/02 04:13:49;;;;;;;1.82;1.67;;;;;;;11.07;78.10;95398.45;1779285;81;21014;-72
2022/10/02 04:16:23;;;;;;;2.25;1.80;;;;;;;11.04;78.14;95406.45;1779681;81;21006;-71
2022/10/02 04:19:25;;;;;;;2.05;1.80;;;;;;;11.05;78.26;95406.86;1776962;81;21004;-72
2022/10/02 04:22:18;;;;;;;2.35;1.77;;;;;;;11.01;78.02;95403.86;1779242;81;21003;-72
2022/10/02 04:24:59;;;;;;;3.67;2.00;;;;;;;10.99;78.31;95409.66;1778149;81;21019;-71
2022/10/02 04:27:54;;;;;;;2.50;1.82;;;;;;;11.01;78.30;95419.27;1777838;81;21087;-72
2022/10/02 04:30:22;;;;;;;5.22;2.50;;;;;;;11.02;78.47;95412.22;1779171;81;21019;-71
2022/10/02 04:32:50;;;;;;;2.52;2.33;;;;;;;11.04;78.46;95412.59;1779103;80;21027;-71
2022/10/02 04:35:25;;;;;;;2.60;2.40;;;;;;;11.08;78.41;95425.27;1778974;81;21075;-71
2022/10/02 04:38:09;;;;;;;2.10;1.90;;;;;;;11.07;78.52;95424.00;1778611;81;21027;-72
2022/10/02 04:41:25;;;;;;;2.10;1.90;;;;;;;11.01;77.96;95417.06;1777477;81;21027;-71
2022/10/02 04:44:03;;;;;;;2.55;1.72;;;;;;;10.97;77.88;95422.88;1779326;80;21580;-72
2022/10/02 04:47:03;;;;;;;2.45;2.22;;;;;;;10.92;77.90;95418.61;1779257;80;21563;-71
2022/10/02 04:50:08;;;;;;;3.25;2.60;;;;;;;10.89;77.66;95426.61;1779491;80;20971;-71
2022/10/02 04:52:50;;;;;;;2.60;2.40;;;;;;;10.93;78.33;95433.08;1778963;81;21008;-71
2022/10/02 04:55:41;;;;;;;3.22;2.65;;;;;;;10.89;78.03;95431.88;1779317;80;21011;-71
2022/10/02 04:58:34;;;;;;;2.95;2.65;;;;;;;10.94;78.63;95441.89;1779043;81;21043;-72
2022/10/02 05:01:28;;;;;;;5.30;2.60;;;;;;;10.94;78.39;95447.17;1779172;81;21094;-72
2022/10/02 05:04:20;;;;;;;2.90;2.60;;;;;;;10.91;78.35;95449.42;1779587;80;21006;-71
2022/10/02 05:07:07;;;;;;;4.50;2.75;;;;;;;10.92;78.64;95455.11;1779777;80;21296;-71
2022/10/02 05:10:00;;;;;;;3.75;2.95;;;;;;;10.87;78.63;95456.98;1784984;80;21054;-71
2022/10/02 05:13:13;;;;;;;3.40;2.80;;;;;;;10.81;78.48;95456.67;1785109;80;21105;-72
2022/10/02 05:16:19;;;;;;;15.43;6.70;;;;;;;10.77;78.71;95464.69;1723342;83;21043;-71
2022/10/02 05:19:16;;;;;;;4.72;3.20;;;;;;;10.68;79.64;95456.95;1732509;82;21350;-72
2022/10/02 05:22:07;;;;;;;4.22;3.58;;;;;;;10.56;80.03;95448.87;1734580;83;21061;-72
2022/10/02 05:25:01;;;;;;;4.42;3.12;;;;;;;10.55;80.05;95449.75;1718721;83;21556;-73
2022/10/02 05:27:36;;;;;;;3.00;2.70;;;;;;;10.54;80.16;95445.38;1701817;83;21058;-73
2022/10/02 05:30:07;;;;;;;3.45;3.12;;;;;;;10.54;80.10;95447.56;1723528;83;21071;-72
2022/10/02 05:33:12;;;;;;;3.77;3.37;;;;;;;10.57;80.22;95454.55;1724205;83;20999;-72
2022/10/02 05:36:01;;;;;;;;;;;;;;;10.63;80.47;95449.58;1727134;83;21098;-73
2022/10/02 05:38:39;;;;;;;3.00;2.58;;;;;;;10.71;80.42;95455.56;1695326;83;20097;-72
2022/10/02 05:41:34;;;;;;;5.45;3.00;;;;;;;10.70;79.52;95467.03;1723964;83;21035;-72
2022/10/02 05:44:12;;;;;;;18.32;11.43;;;;;;;10.68;79.83;95463.09;1724471;82;21540;-72
2022/10/02 05:46:47;;;;;;;70.25;41.63;;;;;;;10.67;79.48;95457.41;1724384;83;21031;-72
2022/10/02 05:49:18;;;;;;;15.23;13.60;;;;;;;10.71;79.14;95459.09;1724255;83;21042;-73
2022/10/02 05:52:03;;;;;;;8.40;7.55;;;;;;;10.72;78.92;95468.73;1724314;82;21126;-73
2022/10/02 05:54:43;;;;;;;10.48;8.23;;;;;;;10.74;78.47;95480.13;1724492;82;21011;-72
2022/10/02 05:57:25;;;;;;;7.35;6.33;;;;;;;10.75;78.72;95484.50;1723443;83;21176;-72
2022/10/02 06:00:37;;;;;;;39.65;33.18;;;;;;;10.72;78.59;95486.34;1724316;83;20995;-73
2022/10/02 06:03:21;;;;;;;4.65;4.10;;;;;;;10.71;78.83;95493.40;1724341;82;21476;-72
2022/10/02 06:06:06;;;;;;;6.03;2.83;;;;;;;10.74;78.55;95498.61;1724209;83;21003;-73
2022/10/02 06:08:50;;;;;;;2.30;2.10;;;;;;;10.72;78.62;95496.90;1718777;82;21047;-73
2022/10/02 06:11:29;;;;;;;;;;;;;;;10.74;78.94;95496.42;1718834;84;21023;-72
2022/10/02 06:14:10;;;;;;;2.62;2.37;;;;;;;10.82;79.67;95503.27;1716499;83;20422;-72
2022/10/02 06:16:42;;;;;;;3.25;2.90;;;;;;;10.90;79.56;95503.10;1716136;84;21011;-72
2022/10/02 06:19:17;;;;;;;2.37;2.17;;;;;;;10.98;79.24;95495.02;1716315;84;21082;-72
2022/10/02 06:22:01;;;;;;;4.37;2.42;;;;;;;11.08;79.39;95507.57;1716448;83;21024;-72
2022/10/02 06:24:44;;;;;;;2.67;2.05;;;;;;;11.11;78.92;95513.64;1716383;84;21019;-73
2022/10/02 06:27:46;;;;;;;4.70;2.50;;;;;;;11.23;79.47;95505.91;1716502;84;21081;-73
2022/10/02 06:30:17;;;;;;;7.83;3.58;;;;;;;11.31;79.25;95500.45;1708770;84;21043;-73
2022/10/02 06:33:00;;;;;;;4.15;3.55;;;;;;;11.40;79.36;95506.85;1716094;83;21524;-72
2022/10/02 06:36:00;;;;;;;2.75;2.00;;;;;;;11.40;78.60;95508.17;1716163;84;21066;-73
2022/10/02 06:38:49;;;;;;;2.95;2.33;;;;;;;11.40;79.19;95518.28;1716185;84;21047;-72
2022/10/02 06:41:45;;;;;;;3.47;2.15;;;;;;;11.44;78.88;95519.06;1716015;84;21076;-73
2022/10/02 06:44:16;;;;;;;3.00;2.50;;;;;;;11.45;79.00;95518.18;1645363;84;21102;-72
2022/10/02 06:47:33;;;;;;;37.80;27.58;;;;;;;11.44;78.55;95521.28;1716319;84;21018;-72
2022/10/02 06:50:38;;;;;;;6.12;4.70;;;;;;;11.41;77.38;95521.33;1716500;83;21174;-72
2022/10/02 06:53:51;;;;;;;2.62;2.00;;;;;;;11.32;77.49;95526.84;1716011;84;21000;-72
2022/10/02 06:56:34;;;;;;;2.02;1.80;;;;;;;11.22;77.41;95522.67;1716485;84;21003;-73
2022/10/02 06:59:08;;;;;;;;;;;;;;;11.20;77.38;95529.30;1717265;84;21067;-73
2022/10/02 07:01:49;;;;;;;1.70;1.60;;;;;;;11.22;77.79;95532.77;1716582;83;20093;-72
2022/10/02 07:04:45;;;;;;;1.50;1.40;;;;;;;11.25;77.73;95537.13;1715448;84;21046;-72
2022/10/02 07:07:38;;;;;;;2.00;1.75;;;;;;;11.24;77.09;95533.62;1716372;83;21046;-72
2022/10/02 07:10:44;;;;;;;3.25;2.95;;;;;;;11.42;77.18;95531.47;1724243;83;21059;-73
2022/10/02 07:13:34;;;;;;;2.33;2.12;;;;;;;11.42;77.18;95531.47;1724320;83;21489;-72
2022/10/02 07:16:29;;;;;;;2.45;2.25;;;;;;;11.52;77.03;95537.41;1724117;83;20988;-72
2022/10/02 07:19:07;;;;;;;1.85;1.75;;;;;;;11.60;75.49;95542.92;1724578;83;21050;-73
2022/10/02 07:21:54;;;;;;;2.27;2.08;;;;;;;11.53;75.18;95532.53;1723809;83;21026;-72
2022/10/02 07:24:52;;;;;;;2.33;2.00;;;;;;;11.60;75.79;95536.31;1724157;83;21015;-73
2022/10/02 07:27:45;;;;;;;2.40;2.20;;;;;;;11.60;74.60;95538.95;1724159;83;21078;-72
2022/10/02 07:30:15;;;;;;;2.12;1.92;;;;;;;11.66;75.50;95539.26;1723340;83;21521;-72
2022/10/02 07:32:49;;;;;;;3.15;2.85;;;;;;;11.72;75.62;95539.56;1724127;83;21117;-72
2022/10/02 07:35:46;;;;;;;6.87;5.33;;;;;;;11.69;75.07;95540.50;1724509;83;21030;-72
2022/10/02 07:38:21;;;;;;;6.75;5.87;;;;;;;11.71;75.67;95549.27;1724037;83;21074;-72
2022/10/02 07:41:29;;;;;;;19.17;17.12;;;;;;;11.67;75.33;95548.48;1724346;83;21041;-73
2022/10/02 07:44:30;;;;;;;11.83;10.35;;;;;;;11.78;75.65;95561.44;1724231;82;21070;-72
2022/10/02 07:47:26;;;;;;;3.02;2.50;;;;;;;11.84;76.01;95549.41;1724609;83;20999;-72
2022/10/02 07:50:10;;;;;;;2.20;2.00;;;;;;;11.99;75.62;95548.17;1724310;83;21026;-72
2022/10/02 07:52:57;;;;;;;2.62;2.00;;;;;;;12.02;74.66;95552.09;1697236;83;20995;-73
2022/10/02 07:55:25;;;;;;;16.30;12.47;;;;;;;12.03;74.46;95552.49;1723990;83;21136;-72
2022/10/02 07:58:19;;;;;;;4.62;2.75;;;;;;;12.07;74.85;95555.48;1724213;83;21062;-72
2022/10/02 08:00:50;;;;;;;;;;;;;;;12.23;75.92;95553.77;1703155;83;21043;-72
2022/10/02 08:03:27;;;;;;;6.12;3.85;;;;;;;12.26;73.66;95555.88;1724314;83;20129;-72
2022/10/02 08:05:55;;;;;;;6.47;5.60;;;;;;;12.28;73.51;95559.81;1724369;83;21544;-72
2022/10/02 08:08:59;;;;;;;4.80;4.40;;;;;;;12.12;73.46;95556.23;1695821;83;21027;-72
2022/10/02 08:11:40;;;;;;;3.40;3.10;;;;;;;12.01;73.97;95563.55;1724355;82;21508;-73
2022/10/02 08:14:42;;;;;;;3.37;3.08;;;;;;;11.89;74.36;95559.88;1707082;83;21573;-72
2022/10/02 08:17:16;;;;;;;3.70;2.60;;;;;;;11.90;74.75;95562.50;1724274;83;21524;-72
2022/10/02 08:19:47;;;;;;;3.12;2.70;;;;;;;12.03;75.50;95566.17;1720990;83;21050;-73
2022/10/02 08:22:25;;;;;;;3.95;3.15;;;;;;;12.06;74.32;95570.06;1696002;83;21030;-72
2022/10/02 08:25:03;;;;;;;3.80;2.80;;;;;;;12.00;74.57;95567.13;1724308;83;21010;-72
2022/10/02 08:27:50;;;;;;;3.05;2.47;;;;;;;11.86;74.28;95559.93;1723413;83;21549;-72
2022/10/02 08:30:17;;;;;;;4.08;2.70;;;;;;;11.86;74.74;95568.76;1713070;83;21070;-73
2022/10/02 08:32:46;;;;;;;3.62;3.05;;;;;;;11.77;75.17;95552.21;1723590;83;21070;-73
2022/10/02 08:35:18;;;;;;;3.62;3.15;;;;;;;11.76;75.27;95557.09;1724210;83;21030;-73
2022/10/02 08:38:16;;;;;;;2.50;2.30;;;;;;;11.81;75.45;95552.56;1724888;83;21034;-72
2022/10/02 08:41:12;;;;;;;3.12;2.83;;;;;;;11.87;75.32;95554.66;1724495;82;21489;-72
2022/10/02 08:44:07;;;;;;;3.70;3.10;;;;;;;11.89;74.79;95557.23;1668954;83;21181;-72
2022/10/02 08:47:31;;;;;;;3.37;2.92;;;;;;;11.94;75.36;95561.10;1724179;83;21035;-72
2022/10/02 08:50:28;;;;;;;;;;;;;;;12.04;75.19;95566.12;1726544;83;21103;-73
2022/10/02 08:53:11;;;;;;;2.87;2.67;;;;;;;12.12;74.90;95568.59;1723895;83;20560;-72
2022/10/02 08:55:49;;;;;;;3.35;2.60;;;;;;;12.13;74.53;95573.83;1724427;82;20995;-73
2022/10/02 08:58:45;;;;;;;3.02;2.47;;;;;;;12.43;75.10;95569.13;1722939;83;21067;-73
2022/10/02 09:01:39;;;;;;;2.65;2.45;;;;;;;12.65;74.54;95580.89;1724275;83;21489;-73
2022/10/02 09:04:37;;;;;;;2.20;2.00;;;;;;;12.67;72.39;95577.72;1723904;83;21019;-72
2022/10/02 09:07:44;;;;;;;2.92;2.20;;;;;;;12.72;72.53;95580.25;1699507;83;21050;-73
2022/10/02 09:10:44;;;;;;;2.47;2.27;;;;;;;12.64;72.41;95587.53;1716656;82;21075;-73
2022/10/02 09:13:49;;;;;;;2.05;1.85;;;;;;;12.52;72.49;95574.16;1715818;84;21576;-72
2022/10/02 09:17:00;;;;;;;1.80;1.70;;;;;;;12.72;72.92;95570.52;1716405;84;21509;-72
2022/10/02 09:19:40;;;;;;;2.83;1.87;;;;;;;13.01;71.22;95578.13;1716241;83;21046;-72
2022/10/02 09:22:24;;;;;;;1.90;1.70;;;;;;;13.19;71.51;95570.11;1716399;84;20996;-72
2022/10/02 09:25:13;;;;;;;2.20;1.67;;;;;;;13.41;71.10;95576.55;1700046;84;21553;-73
2022/10/02 09:28:23;;;;;;;1.50;1.35;;;;;;;13.57;70.14;95584.03;1685918;84;21016;-71
2022/10/02 09:31:29;;;;;;;2.05;1.40;;;;;;;13.83;70.67;95573.93;1716635;83;21019;-73
2022/10/02 09:34:25;;;;;;;1.40;1.30;;;;;;;14.00;67.02;95572.94;1716146;83;21086;-72
2022/10/02 09:37:33;;;;;;;1.95;1.15;;;;;;;14.18;65.93;95575.91;1716509;83;21026;-72
2022/10/02 09:40:24;;;;;;;2.45;1.15;;;;;;;14.29;68.12;95580.42;1716488;83;21497;-73
2022/10/02 09:43:12;;;;;;;1.22;1.10;;;;;;;14.37;66.81;95574.39;1716399;84;21026;-72
2022/10/02 09:46:25;;;;;;;1.60;1.10;;;;;;;14.32;65.18;95581.64;1716389;84;21039;-73
2022/10/02 09:49:30;;;;;;;2.08;1.40;;;;;;;14.06;65.31;95591.76;1716610;83;21054;-72
2022/10/02 09:52:44;;;;;;;1.57;1.47;;;;;;;13.82;65.82;95601.38;1716160;84;21086;-73
2022/10/02 09:55:48;;;;;;;2.60;1.35;;;;;;;13.51;65.90;95603.65;1716789;84;21011;-73
2022/10/02 09:58:46;;;;;;;2.55;1.62;;;;;;;13.32;66.83;95599.80;1716485;83;21079;-73
2022/10/02 10:01:30;;;;;;;1.85;1.47;;;;;;;13.29;67.61;95600.75;1716333;83;21497;-72
2022/10/02 10:04:11;;;;;;;1.40;1.30;;;;;;;13.16;67.49;95605.97;1685570;84;21584;-72
2022/10/02 10:07:17;;;;;;;2.40;1.57;;;;;;;13.21;68.35;95592.99;1672807;84;21062;-72
2022/10/02 10:10:20;;;;;;;4.90;2.58;;;;;;;13.28;68.16;95598.13;1704194;83;21000;-72
2022/10/02 10:13:19;;;;;;;3.05;2.00;;;;;;;13.35;68.03;95586.45;1716492;84;21023;-73
2022/10/02 10:16:29;;;;;;;3.92;1.35;;;;;;;13.35;66.99;95587.30;1684950;84;21059;-73
2022/10/02 10:19:24;;;;;;;1.22;1.12;;;;;;;13.48;67.68;95588.27;1716374;84;21023;-72
2022/10/02 10:22:27;;;;;;;1.67;1.10;;;;;;;13.48;67.04;95585.63;1715034;84;21079;-73
2022/10/02 10:25:25;;;;;;;1.32;1.00;;;;;;;13.49;67.46;95589.56;1716247;83;21548;-73
2022/10/02 10:28:23;;;;;;;2.58;1.42;;;;;;;13.53;66.85;95585.92;1716495;83;21008;-73
2022/10/02 10:31:30;;;;;;;2.72;2.40;;;;;;;13.69;67.20;95583.66;1716539;83;20983;-73
2022/10/02 10:34:37;;;;;;;3.52;2.25;;;;;;;13.95;66.85;95570.03;1713526;84;21509;-73
2022/10/02 10:40:52;;;;;;;1.70;1.40;;;;;;;14.52;65.71;95574.80;1716331;84;21044;-73
2022/10/02 10:43:35;;;;;;;1.40;1.30;;;;;;;14.76;66.59;95568.64;1716729;84;20995;-72
2022/10/02 10:46:58;;;;;;;1.15;1.05;;;;;;;14.97;65.21;95561.71;1716209;83;21079;-72
2022/10/02 10:50:01;;;;;;;1.95;1.52;;;;;;;15.25;63.52;95559.37;1716466;84;21007;-72
2022/10/02 10:53:03;;;;;;;6.70;5.95;;;;;;;15.61;60.81;95558.41;1714922;84;21051;-72
2022/10/02 10:56:06;;;;;;;2.20;1.22;;;;;;;15.64;59.87;95562.75;1715856;84;21058;-72
2022/10/02 10:59:11;;;;;;;;;;;;;;;15.73;60.59;95545.14;1718626;84;21043;-73
2022/10/02 11:02:35;;;;;;;2.62;1.42;;;;;;;15.61;59.15;95546.91;1716450;83;20137;-72
2022/10/02 11:05:36;;;;;;;2.33;1.60;;;;;;;15.35;60.07;95557.63;1716585;83;21019;-72
2022/10/02 11:08:32;;;;;;;1.90;1.70;;;;;;;15.07;61.47;95544.97;1714531;84;21027;-73
2022/10/02 11:11:16;;;;;;;1.00;1.00;;;;;;;15.20;63.61;95550.70;1716067;84;21151;-72
2022/10/02 11:14:18;;;;;;;1.77;0.80;;;;;;;15.69;61.75;95537.73;1699501;84;21047;-73
2022/10/02 11:17:02;;;;;;;2.50;1.00;;;;;;;15.94;60.92;95536.28;1716304;83;21011;-73
2022/10/02 11:19:58;;;;;;;2.60;1.40;;;;;;;15.83;56.75;95535.00;1715592;84;21078;-73
2022/10/02 11:22:31;;;;;;;2.12;1.12;;;;;;;16.06;58.43;95524.75;1673862;84;21433;-72
2022/10/02 11:25:15;;;;;;;1.37;0.90;;;;;;;16.04;58.16;95525.27;1715504;84;21870;-73
2022/10/02 11:28:10;;;;;;;2.15;1.40;;;;;;;16.00;58.33;95520.52;1716458;83;21485;-73
2022/10/02 11:31:01;;;;;;;1.67;1.22;;;;;;;16.60;58.81;95505.55;1716555;83;21015;-73
2022/10/02 11:34:03;;;;;;;2.72;1.05;;;;;;;17.56;56.10;95499.45;1716048;84;21063;-73
2022/10/02 11:36:52;;;;;;;2.35;0.90;;;;;;;18.33;55.25;95495.25;1716609;84;21023;-74
2022/10/02 11:39:58;;;;;;;2.05;1.00;;;;;;;18.98;52.61;95501.31;1716145;84;21056;-74
2022/10/02 11:42:36;;;;;;;7.45;1.32;;;;;;;19.28;51.09;95496.13;1705388;84;21007;-73
2022/10/02 11:45:42;;;;;;;1.10;1.00;;;;;;;19.38;51.12;95484.45;1716237;84;21035;-74
2022/10/02 11:48:40;;;;;;;1.35;1.00;;;;;;;19.98;49.32;95486.00;1658890;84;21509;-73
2022/10/02 11:51:29;;;;;;;1.77;0.90;;;;;;;20.59;49.37;95492.74;1716311;83;21027;-74
2022/10/02 11:54:25;;;;;;;1.05;0.95;;;;;;;21.15;46.99;95487.11;1716415;83;21011;-74
2022/10/02 11:57:09;;;;;;;2.72;0.80;;;;;;;21.71;46.94;95488.05;1715996;83;21039;-74
2022/10/02 12:00:04;;;;;;;1.10;1.00;;;;;;;21.70;44.59;95490.37;1716667;83;20979;-74
2022/10/02 12:03:00;;;;;;;0.85;0.85;;;;;;;21.95;45.31;95476.22;1715195;84;20992;-74
2022/10/02 12:05:52;;;;;;;2.25;0.98;;;;;;;22.51;45.33;95476.61;1716290;83;21010;-75
2022/10/02 12:08:47;;;;;;;2.12;0.80;;;;;;;22.76;43.23;95473.96;1715996;83;21015;-75
2022/10/02 12:11:40;;;;;;;1.72;1.10;;;;;;;22.11;43.16;95469.83;1716385;83;21039;-75
2022/10/02 12:15:00;;;;;;;7.50;1.60;;;;;;;22.22;44.77;95476.72;1645494;84;21037;-74
2022/10/02 12:18:09;;;;;;;2.52;1.02;;;;;;;22.13;45.14;95474.63;1716528;83;21560;-74
2022/10/02 12:27:51;;;;;;;1.17;0.95;;;;;;;20.14;48.02;95474.40;1716349;84;21043;-74
2022/10/02 12:30:21;;;;;;;1.37;0.70;;;;;;;20.04;49.22;95470.91;1716420;84;21027;-74
2022/10/02 12:33:11;;;;;;;2.12;1.40;;;;;;;19.95;47.41;95452.68;1716447;84;21099;-74
2022/10/02 12:35:58;;;;;;;2.25;0.80;;;;;;;20.31;46.56;95456.38;1693199;84;21022;-75
2022/10/02 12:39:00;;;;;;;1.32;1.00;;;;;;;20.68;46.37;95449.31;1716648;83;20995;-74
2022/10/02 12:42:01;;;;;;;2.60;1.20;;;;;;;21.12;44.65;95447.06;1716483;83;21027;-74
2022/10/02 12:45:07;;;;;;;1.57;0.93;;;;;;;21.06;45.43;95441.58;1674279;84;21067;-75
2022/10/02 12:47:48;;;;;;;2.17;0.90;;;;;;;21.39;46.08;95448.49;1716518;83;21015;-74
2022/10/02 12:50:32;;;;;;;4.28;1.00;;;;;;;20.99;45.55;95456.81;1716106;84;21008;-74
2022/10/02 12:53:13;;;;;;;2.65;0.90;;;;;;;21.08;44.96;95449.55;1619218;84;21037;-74
2022/10/02 12:56:03;;;;;;;3.37;0.90;;;;;;;20.20;46.39;95460.63;1715506;84;21167;-75
2022/10/02 12:58:48;;;;;;;2.12;0.70;;;;;;;20.56;45.64;95454.92;1716553;84;21043;-74
2022/10/02 13:02:04;;;;;;;2.87;1.12;;;;;;;20.29;45.55;95454.75;1716340;83;21103;-74
2022/10/02 13:04:58;;;;;;;3.17;0.90;;;;;;;20.00;45.89;95463.98;1716267;84;21493;-74
2022/10/02 13:08:04;;;;;;;2.62;0.78;;;;;;;20.26;44.87;95464.28;1679210;84;21169;-74
2022/10/02 13:10:58;;;;;;;4.00;0.90;;;;;;;20.53;43.40;95462.64;1729022;83;21595;-75
2022/10/02 13:13:45;;;;;;;3.95;0.88;;;;;;;21.17;44.49;95463.25;1695217;84;21017;-74
2022/10/02 13:16:32;;;;;;;4.62;0.80;;;;;;;20.96;42.20;95464.56;1737328;82;20995;-74
2022/10/02 13:19:08;;;;;;;1.30;0.80;;;;;;;20.44;43.78;95473.08;1734700;83;21046;-75
2022/10/02 13:21:49;;;;;;;2.60;0.90;;;;;;;19.62;44.90;95475.52;1706114;84;21095;-75